EVERETT DAM ON PISCATAOUOG R: From 07/08/2018 10:00 to 07/22/2018 21:00

Date LAKE ELEVATION [FT] PRECIPITATION INCREMENT [IN] RESERVOIR RELEASES [CFS] TAILWATER STAGE [FT]
07/22/2018 12:00 -- 0.00 -- --
07/22/2018 11:00 340.01 0.00 -- 4.68
07/22/2018 10:00 340.01 0.00 -- 4.68
07/22/2018 09:00 340.01 0.00 -- 4.68
07/22/2018 08:00 340.01 0.00 -- 4.67
07/22/2018 07:00 340.01 0.00 -- 4.67
07/22/2018 06:00 340.01 0.00 -- 4.67
07/22/2018 05:00 340.01 0.00 -- 4.67
07/22/2018 04:00 340.01 0.00 -- 4.67
07/22/2018 03:00 340.01 0.00 7.9 4.68
07/22/2018 02:00 340.01 0.00 7.9 4.68
07/22/2018 01:00 340.01 0.00 7.9 4.68
07/22/2018 00:00 340.01 0.00 7.9 4.68
07/21/2018 23:00 340.01 0.00 7.9 4.68
07/21/2018 22:00 340.01 0.00 7.9 4.68
07/21/2018 21:00 340.01 0.00 7.9 4.68
07/21/2018 20:00 340.04 0.00 7.9 4.68
07/21/2018 19:00 340.04 0.00 7.9 4.68
07/21/2018 18:00 340.04 0.00 8.2 4.69
07/21/2018 17:00 340.04 0.00 8.2 4.69
07/21/2018 16:00 340.04 0.00 7.9 4.68
07/21/2018 15:00 340.04 0.00 7.9 4.68
07/21/2018 14:00 340.04 0.00 7.9 4.68
07/21/2018 13:00 340.04 0.00 7.9 4.68
07/21/2018 12:00 340.04 0.00 8.2 4.69
07/21/2018 11:00 340.04 0.00 8.2 4.69
07/21/2018 10:00 340.04 0.00 8.2 4.69
07/21/2018 09:00 340.04 0.00 8.2 4.69
07/21/2018 08:00 340.04 0.00 8.6 4.70
07/21/2018 07:00 340.04 0.00 8.6 4.70
07/21/2018 06:00 340.04 0.00 8.6 4.70
07/21/2018 05:00 340.04 0.00 8.6 4.70
07/21/2018 04:00 340.07 0.00 8.6 4.70
07/21/2018 03:00 340.07 0.00 8.6 4.70
07/21/2018 02:00 340.07 0.00 8.6 4.70
07/21/2018 01:00 340.07 0.00 8.9 4.71
07/21/2018 00:00 340.07 0.00 8.9 4.71
07/20/2018 23:00 340.07 0.00 8.9 4.71
07/20/2018 22:00 340.07 0.00 8.9 4.71
07/20/2018 21:00 340.07 0.00 8.9 4.71
07/20/2018 20:00 340.07 0.00 8.9 4.71
07/20/2018 19:00 340.07 0.00 8.2 4.69
07/20/2018 18:00 340.07 0.00 8.2 4.69
07/20/2018 17:00 340.07 0.00 8.6 4.70
07/20/2018 16:00 340.07 0.00 8.2 4.69
07/20/2018 15:00 340.07 0.00 8.2 4.69
07/20/2018 14:00 340.07 0.00 8.2 4.69
07/20/2018 13:00 340.07 0.00 8.2 4.69
07/20/2018 12:00 340.07 0.00 8.6 4.70
07/20/2018 11:00 340.10 0.00 8.6 4.70
07/20/2018 10:00 340.10 0.00 8.6 4.70
07/20/2018 09:00 340.10 0.00 8.6 4.70
07/20/2018 08:00 340.10 0.00 8.9 4.71
07/20/2018 07:00 340.10 0.00 8.9 4.71
07/20/2018 06:00 340.10 0.00 8.9 4.71
07/20/2018 05:00 340.10 0.00 8.9 4.71
07/20/2018 04:00 340.10 0.00 8.6 4.70
07/20/2018 03:00 340.10 0.00 8.9 4.71
07/20/2018 02:00 340.10 0.00 8.9 4.71
07/20/2018 01:00 340.10 0.00 8.9 4.71
07/20/2018 00:00 340.10 0.00 8.9 4.71
07/19/2018 23:00 340.10 0.00 8.9 4.71
07/19/2018 22:00 340.10 0.00 8.9 4.71
07/19/2018 21:00 340.10 0.00 8.9 4.71
07/19/2018 20:00 340.10 0.00 8.9 4.71
07/19/2018 19:00 340.10 0.00 8.9 4.71
07/19/2018 18:00 340.10 0.00 8.9 4.71
07/19/2018 17:00 340.10 0.00 8.9 4.71
07/19/2018 16:00 340.10 0.00 8.9 4.71
07/19/2018 15:00 340.10 0.00 8.9 4.71
07/19/2018 14:00 340.10 0.00 8.9 4.71
07/19/2018 13:00 340.10 0.00 8.9 4.71
07/19/2018 12:00 340.10 0.00 8.9 4.71
07/19/2018 11:00 340.10 0.00 8.9 4.71
07/19/2018 10:00 340.13 0.00 9.3 4.72
07/19/2018 09:00 340.13 0.00 9.3 4.72
07/19/2018 08:00 340.13 0.00 9.8 4.73
07/19/2018 07:00 340.13 0.00 9.8 4.73
07/19/2018 06:00 340.13 0.00 -- --
07/19/2018 05:00 340.13 0.00 9.8 4.73
07/19/2018 04:00 340.13 0.00 9.3 4.72
07/19/2018 03:00 340.13 0.00 9.3 4.72
07/19/2018 02:00 340.13 0.00 9.3 4.72
07/19/2018 01:00 340.13 0.00 9.3 4.72
07/19/2018 00:00 340.13 0.00 9.3 4.72
07/18/2018 23:00 340.13 0.00 9.3 4.72
07/18/2018 22:00 340.13 0.00 9.3 4.72
07/18/2018 21:00 340.13 0.00 9.3 4.72
07/18/2018 20:00 340.13 0.00 9.3 4.72
07/18/2018 19:00 340.13 0.00 9.3 4.72
07/18/2018 18:00 340.13 0.00 9.3 4.72
07/18/2018 17:00 340.13 0.00 9.3 4.72
07/18/2018 16:00 340.10 0.00 9.3 4.72
07/18/2018 15:00 340.10 0.00 8.9 4.71
07/18/2018 14:00 340.10 0.00 8.9 4.71
07/18/2018 13:00 340.10 0.00 8.9 4.71
07/18/2018 12:00 340.10 0.00 9.3 4.72
07/18/2018 11:00 340.10 0.01 9.3 4.72
07/18/2018 10:00 340.10 0.00 9.3 4.72
07/18/2018 09:00 340.10 0.00 9.3 4.72
07/18/2018 08:00 340.13 0.00 9.3 4.72
07/18/2018 07:00 340.13 0.00 9.3 4.72
07/18/2018 06:00 340.13 0.00 9.3 4.72
07/18/2018 05:00 340.10 0.00 8.6 4.70
07/18/2018 04:00 340.10 0.00 8.6 4.70
07/18/2018 03:00 340.10 0.00 8.6 4.70
07/18/2018 02:00 340.10 0.00 8.6 4.70
07/18/2018 01:00 340.10 0.00 8.6 4.70
07/18/2018 00:00 340.10 0.00 8.6 4.70
07/17/2018 23:00 340.10 0.01 8.6 4.70
07/17/2018 22:00 340.10 0.00 8.2 4.69
07/17/2018 21:00 340.10 0.01 7.9 4.68
07/17/2018 20:00 340.07 0.00 7.9 4.68
07/17/2018 19:00 340.07 0.00 7.6 4.67
07/17/2018 18:00 340.07 0.01 7.9 4.68
07/17/2018 17:00 340.07 0.00 7.9 4.68
07/17/2018 16:00 340.07 0.01 7.9 4.68
07/17/2018 15:00 340.07 0.00 7.9 4.68
07/17/2018 14:00 340.07 0.00 7.6 4.67
07/17/2018 13:00 340.04 0.01 7.6 4.67
07/17/2018 12:00 340.04 0.00 7.3 4.66
07/17/2018 11:00 340.04 0.00 7.0 4.65
07/17/2018 10:00 340.04 0.00 7.0 4.65
07/17/2018 09:00 340.04 0.00 7.0 4.65
07/17/2018 08:00 340.01 0.00 -- --
07/17/2018 07:00 340.04 0.00 -- --
07/17/2018 06:00 339.98 0.00 6.4 4.63
07/17/2018 05:00 339.98 0.00 -- --
07/17/2018 04:00 339.98 0.00 -- --
07/17/2018 03:00 339.98 0.00 -- --
07/17/2018 02:00 339.98 0.00 -- --
07/17/2018 01:00 339.98 0.00 -- --
07/17/2018 00:00 339.98 0.00 -- --
07/16/2018 23:00 339.98 0.00 -- --
07/16/2018 22:00 339.98 0.00 -- --
07/16/2018 21:00 339.98 0.00 -- --
07/16/2018 20:00 339.98 0.00 -- --
07/16/2018 19:00 339.98 0.00 -- --
07/16/2018 18:00 339.98 0.00 -- --
07/16/2018 17:00 339.98 0.00 7.3 4.66
07/16/2018 16:00 339.98 0.00 7.3 4.66
07/16/2018 15:00 339.98 0.00 7.0 4.65
07/16/2018 14:00 339.98 0.00 7.0 4.65
07/16/2018 13:00 339.98 0.00 7.0 4.65
07/16/2018 12:00 339.98 0.00 7.0 4.65
07/16/2018 11:00 339.98 0.00 7.0 4.65
07/16/2018 10:00 339.98 0.00 7.3 4.66
07/16/2018 09:00 339.98 0.00 7.3 4.66
07/16/2018 08:00 339.95 0.00 7.3 4.66
07/16/2018 07:00 339.95 0.00 7.0 4.65
07/16/2018 06:00 339.95 0.00 7.0 4.65
07/16/2018 05:00 339.92 0.00 7.0 4.65
07/16/2018 04:00 339.92 0.00 7.0 4.65
07/16/2018 03:00 339.92 0.00 7.0 4.65
07/16/2018 02:00 339.92 0.01 7.0 4.65
07/16/2018 01:00 339.92 0.00 7.0 4.65
07/16/2018 00:00 339.92 0.00 7.0 4.65
07/15/2018 23:00 339.92 0.01 7.0 4.65
07/15/2018 22:00 339.92 0.00 7.0 4.65
07/15/2018 21:00 339.92 0.01 7.0 4.65
07/15/2018 20:00 339.92 0.00 7.0 4.65
07/15/2018 19:00 339.92 0.01 7.0 4.65
07/15/2018 18:00 339.92 0.01 7.0 4.65
07/15/2018 17:00 339.92 0.01 7.0 4.65
07/15/2018 16:00 339.92 0.01 7.0 4.65
07/15/2018 15:00 339.92 0.00 7.0 4.65
07/15/2018 14:00 339.92 0.00 7.0 4.65
07/15/2018 13:00 339.92 0.00 7.0 4.65
07/15/2018 12:00 339.92 0.00 7.0 4.65
07/15/2018 11:00 339.92 0.00 7.0 4.65
07/15/2018 10:00 339.92 0.00 7.0 4.65
07/15/2018 09:00 339.92 0.00 7.0 4.65
07/15/2018 08:00 339.92 0.00 7.0 4.65
07/15/2018 07:00 339.92 0.00 7.3 4.66
07/15/2018 06:00 339.92 0.00 7.0 4.65
07/15/2018 05:00 339.92 0.00 7.0 4.65
07/15/2018 04:00 339.95 0.00 7.0 4.65
07/15/2018 03:00 339.95 0.00 7.0 4.65
07/15/2018 02:00 339.95 0.00 7.3 4.66
07/15/2018 01:00 339.95 0.00 7.3 4.66
07/15/2018 00:00 339.95 0.00 7.3 4.66
07/14/2018 23:00 339.95 0.00 7.3 4.66
07/14/2018 22:00 339.95 0.00 7.3 4.66
07/14/2018 21:00 339.95 0.00 7.3 4.66
07/14/2018 20:00 339.95 0.00 7.3 4.66
07/14/2018 19:00 339.95 0.00 7.3 4.66
07/14/2018 18:00 339.95 0.00 7.3 4.66
07/14/2018 17:00 339.95 0.00 7.3 4.66
07/14/2018 16:00 339.95 0.00 7.3 4.66
07/14/2018 15:00 339.95 0.00 7.0 4.65
07/14/2018 14:00 339.95 0.00 7.0 4.65
07/14/2018 13:00 339.95 0.00 7.0 4.65
07/14/2018 12:00 339.95 0.00 7.0 4.65
07/14/2018 11:00 339.95 0.00 7.0 4.65
07/14/2018 10:00 339.95 0.00 7.0 4.65
07/14/2018 09:00 339.95 0.00 7.3 4.66
07/14/2018 08:00 339.95 0.00 7.3 4.66
07/14/2018 07:00 339.98 0.00 7.3 4.66
07/14/2018 06:00 339.98 0.00 7.3 4.66
07/14/2018 05:00 339.98 0.00 7.3 4.66
07/14/2018 04:00 339.98 0.00 7.3 4.66
07/14/2018 03:00 339.98 0.00 7.3 4.66
07/14/2018 02:00 339.98 0.00 7.3 4.66
07/14/2018 01:00 339.98 0.00 7.3 4.66
07/14/2018 00:00 339.98 0.00 7.3 4.66
07/13/2018 23:00 339.98 0.00 7.3 4.66
07/13/2018 22:00 339.98 0.00 7.3 4.66
07/13/2018 21:00 339.98 0.00 7.3 4.66
07/13/2018 20:00 339.98 0.00 7.3 4.66
07/13/2018 19:00 339.98 0.00 7.3 4.66
07/13/2018 18:00 339.98 0.00 7.3 4.66
07/13/2018 17:00 339.98 0.00 7.3 4.66
07/13/2018 16:00 339.98 0.00 7.3 4.66
07/13/2018 15:00 339.98 0.00 7.3 4.66
07/13/2018 14:00 339.98 0.00 7.3 4.66
07/13/2018 13:00 339.98 0.00 7.3 4.66
07/13/2018 12:00 339.98 0.00 7.3 4.66
07/13/2018 11:00 339.98 0.00 7.3 4.66
07/13/2018 10:00 339.98 0.00 7.3 4.66
07/13/2018 09:00 339.98 0.00 7.3 4.66
07/13/2018 08:00 339.98 0.00 7.3 4.66
07/13/2018 07:00 339.98 0.00 7.3 4.66
07/13/2018 06:00 339.98 0.00 7.3 4.66
07/13/2018 05:00 339.98 0.00 7.3 4.66
07/13/2018 04:00 339.98 0.00 7.3 4.66
07/13/2018 03:00 340.01 0.00 7.3 4.66
07/13/2018 02:00 340.01 0.00 7.6 4.67
07/13/2018 01:00 340.01 0.00 7.6 4.67
07/13/2018 00:00 340.01 0.00 7.6 4.67
07/12/2018 23:00 340.01 0.00 7.6 4.67
07/12/2018 22:00 340.01 0.00 7.6 4.67
07/12/2018 21:00 340.01 0.00 7.6 4.67
07/12/2018 20:00 340.01 0.00 7.6 4.67
07/12/2018 19:00 340.01 0.00 7.6 4.67
07/12/2018 18:00 340.01 0.00 7.6 4.67
07/12/2018 17:00 340.01 0.00 7.6 4.67
07/12/2018 16:00 340.01 0.00 7.6 4.67
07/12/2018 15:00 340.01 0.00 7.6 4.67
07/12/2018 14:00 340.01 0.00 7.6 4.67
07/12/2018 13:00 340.01 0.00 7.6 4.67
07/12/2018 12:00 340.01 0.00 7.6 4.67
07/12/2018 11:00 340.01 0.00 7.6 4.67
07/12/2018 10:00 340.01 0.00 6.1 4.62
07/12/2018 09:00 340.01 0.00 6.4 4.63
07/12/2018 08:00 340.01 0.00 6.4 4.63
07/12/2018 07:00 340.01 0.00 6.4 4.63
07/12/2018 06:00 340.01 0.00 6.4 4.63
07/12/2018 05:00 340.01 0.00 6.4 4.63
07/12/2018 04:00 340.04 0.00 6.4 4.63
07/12/2018 03:00 340.04 0.00 6.4 4.63
07/12/2018 02:00 340.04 0.00 6.4 4.63
07/12/2018 01:00 340.04 0.00 6.7 4.64
07/12/2018 00:00 340.04 0.00 6.7 4.64
07/11/2018 23:00 340.04 0.00 6.7 4.64
07/11/2018 22:00 340.04 0.00 6.7 4.64
07/11/2018 21:00 340.04 0.00 6.7 4.64
07/11/2018 20:00 340.04 0.00 6.7 4.64
07/11/2018 19:00 340.04 0.00 6.7 4.64
07/11/2018 18:00 340.04 0.00 6.7 4.64
07/11/2018 17:00 340.04 0.00 6.4 4.63
07/11/2018 16:00 340.04 0.00 6.4 4.63
07/11/2018 15:00 340.04 0.00 6.4 4.63
07/11/2018 14:00 340.04 0.00 6.4 4.63
07/11/2018 13:00 340.04 0.00 6.4 4.63
07/11/2018 12:00 340.04 0.00 6.4 4.63
07/11/2018 11:00 340.04 0.00 6.4 4.63
07/11/2018 10:00 340.04 0.00 6.4 4.63
07/11/2018 09:00 340.04 0.00 6.4 4.63
07/11/2018 08:00 340.04 0.00 6.4 4.63
07/11/2018 07:00 340.04 0.00 6.1 4.62
07/11/2018 06:00 340.04 0.00 6.1 4.62
07/11/2018 05:00 340.04 0.00 6.1 4.62
07/11/2018 04:00 340.04 0.00 6.1 4.62
07/11/2018 03:00 340.04 0.00 6.1 4.62
07/11/2018 02:00 340.04 0.00 6.1 4.62
07/11/2018 01:00 340.04 0.00 6.7 4.64
07/11/2018 00:00 340.04 0.00 6.7 4.64
07/10/2018 23:00 340.04 0.00 7.0 4.65
07/10/2018 22:00 340.04 0.00 7.0 4.65
07/10/2018 21:00 340.04 0.00 7.0 4.65
07/10/2018 20:00 340.04 0.00 7.0 4.65
07/10/2018 19:00 340.04 0.01 7.0 4.65
07/10/2018 18:00 340.04 0.00 7.0 4.65
07/10/2018 17:00 340.04 0.00 7.0 4.65
07/10/2018 16:00 340.04 0.01 7.0 4.65
07/10/2018 15:00 340.04 0.00 6.7 4.64
07/10/2018 14:00 340.04 0.00 7.0 4.65
07/10/2018 13:00 340.04 0.00 7.0 4.65
07/10/2018 12:00 340.04 0.00 7.0 4.65
07/10/2018 11:00 340.04 0.00 7.0 4.65
07/10/2018 10:00 340.04 0.00 7.0 4.65
07/10/2018 09:00 340.04 0.00 7.0 4.65
07/10/2018 08:00 340.04 0.00 6.7 4.64
07/10/2018 07:00 340.04 0.00 6.7 4.64
07/10/2018 06:00 340.07 0.00 6.7 4.64
07/10/2018 05:00 340.07 0.00 6.4 4.63
07/10/2018 04:00 340.07 0.00 6.4 4.63
07/10/2018 03:00 340.07 0.00 6.4 4.63
07/10/2018 02:00 340.07 0.00 6.7 4.64
07/10/2018 01:00 340.07 0.00 6.7 4.64
07/10/2018 00:00 340.07 0.00 6.7 4.64
07/09/2018 23:00 340.07 0.00 6.7 4.64
07/09/2018 22:00 340.07 0.00 6.7 4.64
07/09/2018 21:00 340.07 0.00 6.7 4.64
07/09/2018 20:00 340.07 0.00 6.7 4.64
07/09/2018 19:00 340.07 0.00 6.7 4.64
07/09/2018 18:00 340.07 0.00 6.7 4.64
07/09/2018 17:00 340.07 0.00 6.7 4.64
07/09/2018 16:00 340.07 0.00 6.7 4.64
07/09/2018 15:00 340.07 0.00 6.4 4.63
07/09/2018 14:00 340.07 0.00 6.4 4.63
07/09/2018 13:00 340.10 0.00 6.4 4.63
07/09/2018 12:00 340.10 0.00 6.4 4.63
07/09/2018 11:00 340.07 0.00 6.7 4.64
07/09/2018 10:00 340.07 0.00 6.7 4.64
07/09/2018 09:00 340.10 0.00 6.7 4.64
07/09/2018 08:00 340.10 0.00 6.7 4.64
07/09/2018 07:00 340.10 0.00 6.7 4.64
07/09/2018 06:00 340.10 0.00 6.7 4.64
07/09/2018 05:00 340.10 0.00 6.7 4.64
07/09/2018 04:00 340.10 0.00 6.1 4.62
07/09/2018 03:00 340.10 0.00 6.1 4.62
07/09/2018 02:00 340.10 0.00 6.1 4.62
07/09/2018 01:00 340.10 0.00 6.1 4.62
07/09/2018 00:00 340.10 0.00 6.1 4.62
07/08/2018 23:00 340.10 0.00 6.4 4.63
07/08/2018 22:00 340.10 0.00 6.1 4.62
07/08/2018 21:00 340.10 0.00 6.1 4.62
07/08/2018 20:00 340.10 0.00 6.1 4.62
07/08/2018 19:00 340.10 0.00 6.1 4.62
07/08/2018 18:00 340.10 0.00 6.4 4.63
07/08/2018 17:00 340.10 0.00 6.1 4.62
07/08/2018 16:00 -- -- -- --
07/08/2018 15:00 -- -- -- --
07/08/2018 14:00 -- -- -- --
07/08/2018 13:00 -- -- -- --
07/08/2018 12:00 -- -- -- --
07/08/2018 11:00 -- -- -- --
07/08/2018 10:00 -- -- -- --